sensor_id;sensor_type;location;lat;lon;timestamp;temperature;humidity
6841;DHT22;3458;53.678;14.080;2022-11-20T00:00:49;1.60;99.90
6841;DHT22;3458;53.678;14.080;2022-11-20T00:03:15;1.60;99.90
6841;DHT22;3458;53.678;14.080;2022-11-20T00:05:40;1.60;99.90
6841;DHT22;3458;53.678;14.080;2022-11-20T00:08:06;1.60;99.90
6841;DHT22;3458;53.678;14.080;2022-11-20T00:10:31;1.60;99.90
6841;DHT22;3458;53.678;14.080;2022-11-20T00:13:00;1.60;99.90
6841;DHT22;3458;53.678;14.080;2022-11-20T00:15:25;1.60;99.90
6841;DHT22;3458;53.678;14.080;2022-11-20T00:17:51;1.60;99.90
6841;DHT22;3458;53.678;14.080;2022-11-20T00:20:17;1.60;99.90
6841;DHT22;3458;53.678;14.080;2022-11-20T00:22:42;1.50;99.90
6841;DHT22;3458;53.678;14.080;2022-11-20T00:25:08;1.50;99.90
6841;DHT22;3458;53.678;14.080;2022-11-20T00:27:33;1.60;99.90
6841;DHT22;3458;53.678;14.080;2022-11-20T00:29:59;1.60;99.90
6841;DHT22;3458;53.678;14.080;2022-11-20T00:32:24;1.50;99.90
6841;DHT22;3458;53.678;14.080;2022-11-20T00:34:50;1.60;99.90
6841;DHT22;3458;53.678;14.080;2022-11-20T00:37:15;1.50;99.90
6841;DHT22;3458;53.678;14.080;2022-11-20T00:39:41;1.60;99.90
6841;DHT22;3458;53.678;14.080;2022-11-20T00:42:06;1.50;99.90
6841;DHT22;3458;53.678;14.080;2022-11-20T00:44:32;1.60;99.90
6841;DHT22;3458;53.678;14.080;2022-11-20T00:46:57;1.60;99.90
6841;DHT22;3458;53.678;14.080;2022-11-20T00:49:23;1.60;99.90
6841;DHT22;3458;53.678;14.080;2022-11-20T00:51:48;1.60;99.90
6841;DHT22;3458;53.678;14.080;2022-11-20T00:54:14;1.60;99.90
6841;DHT22;3458;53.678;14.080;2022-11-20T00:56:39;1.60;99.90
6841;DHT22;3458;53.678;14.080;2022-11-20T00:59:05;1.60;99.90
6841;DHT22;3458;53.678;14.080;2022-11-20T01:01:31;1.60;99.90
6841;DHT22;3458;53.678;14.080;2022-11-20T01:03:58;1.60;99.90
6841;DHT22;3458;53.678;14.080;2022-11-20T01:06:27;1.60;99.90
6841;DHT22;3458;53.678;14.080;2022-11-20T01:08:55;1.60;99.90
6841;DHT22;3458;53.678;14.080;2022-11-20T01:11:26;1.60;99.90
6841;DHT22;3458;53.678;14.080;2022-11-20T01:13:54;1.60;99.90
6841;DHT22;3458;53.678;14.080;2022-11-20T01:16:22;1.60;99.90
6841;DHT22;3458;53.678;14.080;2022-11-20T01:18:50;1.60;99.90
6841;DHT22;3458;53.678;14.080;2022-11-20T01:21:28;1.60;99.90
6841;DHT22;3458;53.678;14.080;2022-11-20T01:23:54;1.60;99.90
6841;DHT22;3458;53.678;14.080;2022-11-20T01:26:22;1.60;99.90
6841;DHT22;3458;53.678;14.080;2022-11-20T01:28:48;1.60;99.90
6841;DHT22;3458;53.678;14.080;2022-11-20T01:31:35;1.50;99.90
6841;DHT22;3458;53.678;14.080;2022-11-20T01:34:04;1.50;99.90
6841;DHT22;3458;53.678;14.080;2022-11-20T01:36:31;1.50;99.90
6841;DHT22;3458;53.678;14.080;2022-11-20T01:38:59;1.50;99.90
6841;DHT22;3458;53.678;14.080;2022-11-20T01:41:26;1.50;99.90
6841;DHT22;3458;53.678;14.080;2022-11-20T01:44:12;1.50;99.90
6841;DHT22;3458;53.678;14.080;2022-11-20T01:46:48;1.50;99.90
6841;DHT22;3458;53.678;14.080;2022-11-20T01:49:22;1.50;99.90
6841;DHT22;3458;53.678;14.080;2022-11-20T01:51:57;1.50;99.90
6841;DHT22;3458;53.678;14.080;2022-11-20T01:54:30;1.50;99.90
6841;DHT22;3458;53.678;14.080;2022-11-20T01:56:59;1.50;99.90
6841;DHT22;3458;53.678;14.080;2022-11-20T01:59:26;1.60;99.90
6841;DHT22;3458;53.678;14.080;2022-11-20T02:01:53;1.60;99.90
6841;DHT22;3458;53.678;14.080;2022-11-20T02:04:20;1.60;99.90
6841;DHT22;3458;53.678;14.080;2022-11-20T02:06:49;1.60;99.90
6841;DHT22;3458;53.678;14.080;2022-11-20T02:09:16;1.60;99.90
6841;DHT22;3458;53.678;14.080;2022-11-20T02:11:42;1.60;99.90
6841;DHT22;3458;53.678;14.080;2022-11-20T02:14:08;1.60;99.90
6841;DHT22;3458;53.678;14.080;2022-11-20T02:16:36;1.50;99.90
6841;DHT22;3458;53.678;14.080;2022-11-20T02:19:07;1.60;99.90
6841;DHT22;3458;53.678;14.080;2022-11-20T02:21:43;1.60;99.90
6841;DHT22;3458;53.678;14.080;2022-11-20T02:24:16;1.60;99.90
6841;DHT22;3458;53.678;14.080;2022-11-20T02:26:49;1.60;99.90
6841;DHT22;3458;53.678;14.080;2022-11-20T02:29:24;1.60;99.90
6841;DHT22;3458;53.678;14.080;2022-11-20T02:31:51;1.60;99.90
6841;DHT22;3458;53.678;14.080;2022-11-20T02:34:19;1.60;99.90
6841;DHT22;3458;53.678;14.080;2022-11-20T02:36:44;1.60;99.90
6841;DHT22;3458;53.678;14.080;2022-11-20T02:39:11;1.60;99.90
6841;DHT22;3458;53.678;14.080;2022-11-20T02:41:38;1.60;99.90
6841;DHT22;3458;53.678;14.080;2022-11-20T02:44:04;1.60;99.90
6841;DHT22;3458;53.678;14.080;2022-11-20T02:46:31;1.60;99.90
6841;DHT22;3458;53.678;14.080;2022-11-20T02:48:57;1.60;99.90
6841;DHT22;3458;53.678;14.080;2022-11-20T02:51:23;1.60;99.90
6841;DHT22;3458;53.678;14.080;2022-11-20T02:53:49;1.60;99.90
6841;DHT22;3458;53.678;14.080;2022-11-20T02:56:15;1.60;99.90
6841;DHT22;3458;53.678;14.080;2022-11-20T02:58:41;1.60;99.90
6841;DHT22;3458;53.678;14.080;2022-11-20T03:01:06;1.60;99.90
6841;DHT22;3458;53.678;14.080;2022-11-20T03:03:32;1.50;99.90
6841;DHT22;3458;53.678;14.080;2022-11-20T03:05:59;1.50;99.90
6841;DHT22;3458;53.678;14.080;2022-11-20T03:08:25;1.50;99.90
6841;DHT22;3458;53.678;14.080;2022-11-20T03:10:50;1.50;99.90
6841;DHT22;3458;53.678;14.080;2022-11-20T03:13:16;1.50;99.90
6841;DHT22;3458;53.678;14.080;2022-11-20T03:15:41;1.50;99.90
6841;DHT22;3458;53.678;14.080;2022-11-20T03:18:07;1.60;99.90
6841;DHT22;3458;53.678;14.080;2022-11-20T03:20:33;1.60;99.90
6841;DHT22;3458;53.678;14.080;2022-11-20T03:22:59;1.60;99.90
6841;DHT22;3458;53.678;14.080;2022-11-20T03:25:25;1.60;99.90
6841;DHT22;3458;53.678;14.080;2022-11-20T03:27:51;1.60;99.90
6841;DHT22;3458;53.678;14.080;2022-11-20T03:30:16;1.50;99.90
6841;DHT22;3458;53.678;14.080;2022-11-20T03:32:42;1.50;99.90
6841;DHT22;3458;53.678;14.080;2022-11-20T03:35:08;1.50;99.90
6841;DHT22;3458;53.678;14.080;2022-11-20T03:37:34;1.50;99.90
6841;DHT22;3458;53.678;14.080;2022-11-20T03:39:59;1.50;99.90
6841;DHT22;3458;53.678;14.080;2022-11-20T03:42:26;1.50;99.90
6841;DHT22;3458;53.678;14.080;2022-11-20T03:45:10;1.50;99.90
6841;DHT22;3458;53.678;14.080;2022-11-20T03:47:35;1.50;99.90
6841;DHT22;3458;53.678;14.080;2022-11-20T03:50:01;1.50;99.90
6841;DHT22;3458;53.678;14.080;2022-11-20T03:52:27;1.50;99.90
6841;DHT22;3458;53.678;14.080;2022-11-20T03:54:52;1.50;99.90
6841;DHT22;3458;53.678;14.080;2022-11-20T03:57:18;1.50;99.90
6841;DHT22;3458;53.678;14.080;2022-11-20T03:59:43;1.50;99.90
6841;DHT22;3458;53.678;14.080;2022-11-20T04:02:09;1.50;99.90
6841;DHT22;3458;53.678;14.080;2022-11-20T04:04:34;1.50;99.90
6841;DHT22;3458;53.678;14.080;2022-11-20T04:07:00;1.50;99.90
6841;DHT22;3458;53.678;14.080;2022-11-20T04:09:25;1.40;99.90
6841;DHT22;3458;53.678;14.080;2022-11-20T04:11:51;1.40;99.90
6841;DHT22;3458;53.678;14.080;2022-11-20T04:14:16;1.40;99.90
6841;DHT22;3458;53.678;14.080;2022-11-20T04:16:43;1.40;99.90
6841;DHT22;3458;53.678;14.080;2022-11-20T04:19:11;1.50;99.90
6841;DHT22;3458;53.678;14.080;2022-11-20T04:21:37;1.40;99.90
6841;DHT22;3458;53.678;14.080;2022-11-20T04:24:03;1.40;99.90
6841;DHT22;3458;53.678;14.080;2022-11-20T04:26:29;1.40;99.90
6841;DHT22;3458;53.678;14.080;2022-11-20T04:28:55;1.50;99.90
6841;DHT22;3458;53.678;14.080;2022-11-20T04:31:23;1.50;99.90
6841;DHT22;3458;53.678;14.080;2022-11-20T04:33:49;1.50;99.90
6841;DHT22;3458;53.678;14.080;2022-11-20T04:36:17;1.50;99.90
6841;DHT22;3458;53.678;14.080;2022-11-20T04:38:43;1.50;99.90
6841;DHT22;3458;53.678;14.080;2022-11-20T04:41:15;1.50;99.90
6841;DHT22;3458;53.678;14.080;2022-11-20T04:43:41;1.50;99.90
6841;DHT22;3458;53.678;14.080;2022-11-20T04:46:06;1.50;99.90
6841;DHT22;3458;53.678;14.080;2022-11-20T04:48:32;1.50;99.90
6841;DHT22;3458;53.678;14.080;2022-11-20T04:50:57;1.50;99.90
6841;DHT22;3458;53.678;14.080;2022-11-20T04:53:23;1.50;99.90
6841;DHT22;3458;53.678;14.080;2022-11-20T04:55:49;1.50;99.90
6841;DHT22;3458;53.678;14.080;2022-11-20T04:58:15;1.60;99.90
6841;DHT22;3458;53.678;14.080;2022-11-20T05:00:40;1.50;99.90
6841;DHT22;3458;53.678;14.080;2022-11-20T05:03:06;1.60;99.90
6841;DHT22;3458;53.678;14.080;2022-11-20T05:05:34;1.60;99.90
6841;DHT22;3458;53.678;14.080;2022-11-20T05:08:00;1.60;99.90
6841;DHT22;3458;53.678;14.080;2022-11-20T05:10:26;1.60;99.90
6841;DHT22;3458;53.678;14.080;2022-11-20T05:12:52;1.60;99.90
6841;DHT22;3458;53.678;14.080;2022-11-20T05:15:18;1.60;99.90
6841;DHT22;3458;53.678;14.080;2022-11-20T05:17:48;1.50;99.90
6841;DHT22;3458;53.678;14.080;2022-11-20T05:20:13;1.50;99.90
6841;DHT22;3458;53.678;14.080;2022-11-20T05:22:39;1.60;99.90
6841;DHT22;3458;53.678;14.080;2022-11-20T05:25:04;1.60;99.90
6841;DHT22;3458;53.678;14.080;2022-11-20T05:27:30;1.60;99.90
6841;DHT22;3458;53.678;14.080;2022-11-20T05:29:55;1.60;99.90
6841;DHT22;3458;53.678;14.080;2022-11-20T05:32:21;1.60;99.90
6841;DHT22;3458;53.678;14.080;2022-11-20T05:34:51;1.60;99.90
6841;DHT22;3458;53.678;14.080;2022-11-20T05:37:16;1.70;99.90
6841;DHT22;3458;53.678;14.080;2022-11-20T05:39:42;1.70;99.90
6841;DHT22;3458;53.678;14.080;2022-11-20T05:42:07;1.70;99.90
6841;DHT22;3458;53.678;14.080;2022-11-20T05:44:51;1.70;99.90
6841;DHT22;3458;53.678;14.080;2022-11-20T05:47:17;1.70;99.90
6841;DHT22;3458;53.678;14.080;2022-11-20T05:49:42;1.70;99.90
6841;DHT22;3458;53.678;14.080;2022-11-20T05:52:08;1.70;99.90
6841;DHT22;3458;53.678;14.080;2022-11-20T05:54:33;1.70;99.90
6841;DHT22;3458;53.678;14.080;2022-11-20T05:56:59;1.70;99.90
6841;DHT22;3458;53.678;14.080;2022-11-20T05:59:24;1.70;99.90
6841;DHT22;3458;53.678;14.080;2022-11-20T06:01:50;1.70;99.90
6841;DHT22;3458;53.678;14.080;2022-11-20T06:04:15;1.70;99.90
6841;DHT22;3458;53.678;14.080;2022-11-20T06:06:41;1.60;99.90
6841;DHT22;3458;53.678;14.080;2022-11-20T06:09:07;1.70;99.90
6841;DHT22;3458;53.678;14.080;2022-11-20T06:11:32;1.70;99.90
6841;DHT22;3458;53.678;14.080;2022-11-20T06:13:58;1.70;99.90
6841;DHT22;3458;53.678;14.080;2022-11-20T06:16:23;1.70;99.90
6841;DHT22;3458;53.678;14.080;2022-11-20T06:18:49;1.70;99.90
6841;DHT22;3458;53.678;14.080;2022-11-20T06:21:17;1.70;99.90
6841;DHT22;3458;53.678;14.080;2022-11-20T06:23:43;1.70;99.90
6841;DHT22;3458;53.678;14.080;2022-11-20T06:26:11;1.70;99.90
6841;DHT22;3458;53.678;14.080;2022-11-20T06:28:37;1.70;99.90
6841;DHT22;3458;53.678;14.080;2022-11-20T06:31:04;1.70;99.90
6841;DHT22;3458;53.678;14.080;2022-11-20T06:33:30;1.70;99.90
6841;DHT22;3458;53.678;14.080;2022-11-20T06:35:57;1.70;99.90
6841;DHT22;3458;53.678;14.080;2022-11-20T06:38:24;1.70;99.90
6841;DHT22;3458;53.678;14.080;2022-11-20T06:40:50;1.70;99.90
6841;DHT22;3458;53.678;14.080;2022-11-20T06:43:15;1.80;99.90
6841;DHT22;3458;53.678;14.080;2022-11-20T06:45:41;1.80;99.90
6841;DHT22;3458;53.678;14.080;2022-11-20T06:48:06;1.70;99.90
6841;DHT22;3458;53.678;14.080;2022-11-20T06:50:32;1.70;99.90
6841;DHT22;3458;53.678;14.080;2022-11-20T06:53:01;1.70;99.90
6841;DHT22;3458;53.678;14.080;2022-11-20T06:55:27;1.70;99.90
6841;DHT22;3458;53.678;14.080;2022-11-20T06:57:53;1.70;99.90
6841;DHT22;3458;53.678;14.080;2022-11-20T07:00:18;1.70;99.90
6841;DHT22;3458;53.678;14.080;2022-11-20T07:02:44;1.60;99.90
6841;DHT22;3458;53.678;14.080;2022-11-20T07:05:09;1.60;99.90
6841;DHT22;3458;53.678;14.080;2022-11-20T07:07:35;1.60;99.90
6841;DHT22;3458;53.678;14.080;2022-11-20T07:10:00;1.60;99.90
6841;DHT22;3458;53.678;14.080;2022-11-20T07:12:26;1.60;99.90
6841;DHT22;3458;53.678;14.080;2022-11-20T07:14:51;1.60;99.90
6841;DHT22;3458;53.678;14.080;2022-11-20T07:17:17;1.50;99.90
6841;DHT22;3458;53.678;14.080;2022-11-20T07:19:42;1.60;99.90
6841;DHT22;3458;53.678;14.080;2022-11-20T07:22:08;1.60;99.90
6841;DHT22;3458;53.678;14.080;2022-11-20T07:24:34;1.60;99.90
6841;DHT22;3458;53.678;14.080;2022-11-20T07:27:00;1.60;99.90
6841;DHT22;3458;53.678;14.080;2022-11-20T07:29:28;1.60;99.90
6841;DHT22;3458;53.678;14.080;2022-11-20T07:31:54;1.60;99.90
6841;DHT22;3458;53.678;14.080;2022-11-20T07:34:21;1.70;99.90
6841;DHT22;3458;53.678;14.080;2022-11-20T07:36:47;1.70;99.90
6841;DHT22;3458;53.678;14.080;2022-11-20T07:39:12;1.70;99.90
6841;DHT22;3458;53.678;14.080;2022-11-20T07:41:38;1.70;99.90
6841;DHT22;3458;53.678;14.080;2022-11-20T07:44:04;1.70;99.90
6841;DHT22;3458;53.678;14.080;2022-11-20T07:46:29;1.70;99.90
6841;DHT22;3458;53.678;14.080;2022-11-20T07:48:55;1.80;99.90
6841;DHT22;3458;53.678;14.080;2022-11-20T07:51:20;1.80;99.90
6841;DHT22;3458;53.678;14.080;2022-11-20T07:53:46;1.80;99.90
6841;DHT22;3458;53.678;14.080;2022-11-20T07:56:11;1.90;99.90
6841;DHT22;3458;53.678;14.080;2022-11-20T07:58:39;1.90;99.90
6841;DHT22;3458;53.678;14.080;2022-11-20T08:01:06;1.90;99.90
6841;DHT22;3458;53.678;14.080;2022-11-20T08:03:32;2.00;99.90
6841;DHT22;3458;53.678;14.080;2022-11-20T08:06:01;2.00;99.90
6841;DHT22;3458;53.678;14.080;2022-11-20T08:08:27;2.00;99.90
6841;DHT22;3458;53.678;14.080;2022-11-20T08:10:53;2.00;99.90
6841;DHT22;3458;53.678;14.080;2022-11-20T08:13:38;2.00;99.90
6841;DHT22;3458;53.678;14.080;2022-11-20T08:16:22;2.00;99.90
6841;DHT22;3458;53.678;14.080;2022-11-20T08:18:48;2.00;99.90
6841;DHT22;3458;53.678;14.080;2022-11-20T08:21:18;2.10;99.90
6841;DHT22;3458;53.678;14.080;2022-11-20T08:23:43;2.10;99.90
6841;DHT22;3458;53.678;14.080;2022-11-20T08:26:09;2.10;99.90
6841;DHT22;3458;53.678;14.080;2022-11-20T08:28:35;2.10;99.90
6841;DHT22;3458;53.678;14.080;2022-11-20T08:31:02;2.10;99.90
6841;DHT22;3458;53.678;14.080;2022-11-20T08:33:28;2.10;99.90
6841;DHT22;3458;53.678;14.080;2022-11-20T08:35:53;2.10;99.90
6841;DHT22;3458;53.678;14.080;2022-11-20T08:38:23;2.10;99.90
6841;DHT22;3458;53.678;14.080;2022-11-20T08:41:01;2.10;99.90
6841;DHT22;3458;53.678;14.080;2022-11-20T08:43:45;2.10;99.90
6841;DHT22;3458;53.678;14.080;2022-11-20T08:46:10;2.10;99.90
6841;DHT22;3458;53.678;14.080;2022-11-20T08:48:36;2.10;99.90
6841;DHT22;3458;53.678;14.080;2022-11-20T08:51:01;2.20;99.90
6841;DHT22;3458;53.678;14.080;2022-11-20T08:53:27;2.10;99.90
6841;DHT22;3458;53.678;14.080;2022-11-20T08:55:53;2.10;99.90
6841;DHT22;3458;53.678;14.080;2022-11-20T08:58:18;2.20;99.90
6841;DHT22;3458;53.678;14.080;2022-11-20T09:00:44;2.20;99.90
6841;DHT22;3458;53.678;14.080;2022-11-20T09:03:09;2.20;99.90
6841;DHT22;3458;53.678;14.080;2022-11-20T09:05:35;2.30;99.90
6841;DHT22;3458;53.678;14.080;2022-11-20T09:08:00;2.30;99.90
6841;DHT22;3458;53.678;14.080;2022-11-20T09:10:27;2.30;99.90
6841;DHT22;3458;53.678;14.080;2022-11-20T09:12:53;2.30;99.90
6841;DHT22;3458;53.678;14.080;2022-11-20T09:15:19;2.30;99.90
6841;DHT22;3458;53.678;14.080;2022-11-20T09:17:58;2.30;99.90
6841;DHT22;3458;53.678;14.080;2022-11-20T09:20:25;2.40;99.90
6841;DHT22;3458;53.678;14.080;2022-11-20T09:22:51;2.40;99.90
6841;DHT22;3458;53.678;14.080;2022-11-20T09:25:16;2.30;99.90
6841;DHT22;3458;53.678;14.080;2022-11-20T09:27:42;2.40;99.90
6841;DHT22;3458;53.678;14.080;2022-11-20T09:30:09;2.40;99.90
6841;DHT22;3458;53.678;14.080;2022-11-20T09:32:35;2.40;99.90
6841;DHT22;3458;53.678;14.080;2022-11-20T09:35:01;2.40;99.90
6841;DHT22;3458;53.678;14.080;2022-11-20T09:37:27;2.40;99.90
6841;DHT22;3458;53.678;14.080;2022-11-20T09:39:52;2.50;99.90
6841;DHT22;3458;53.678;14.080;2022-11-20T09:42:32;2.60;99.90
6841;DHT22;3458;53.678;14.080;2022-11-20T09:45:20;2.60;99.90
6841;DHT22;3458;53.678;14.080;2022-11-20T09:47:51;2.70;99.90
6841;DHT22;3458;53.678;14.080;2022-11-20T09:50:29;2.80;99.90
6841;DHT22;3458;53.678;14.080;2022-11-20T09:53:06;2.80;99.90
6841;DHT22;3458;53.678;14.080;2022-11-20T09:55:36;2.90;99.90
6841;DHT22;3458;53.678;14.080;2022-11-20T09:58:06;3.00;99.90
6841;DHT22;3458;53.678;14.080;2022-11-20T10:00:32;3.00;99.90
6841;DHT22;3458;53.678;14.080;2022-11-20T10:06:00;3.10;99.90
6841;DHT22;3458;53.678;14.080;2022-11-20T10:08:41;3.10;99.90
6841;DHT22;3458;53.678;14.080;2022-11-20T10:17:04;3.20;99.90
6841;DHT22;3458;53.678;14.080;2022-11-20T10:19:51;3.20;99.90
6841;DHT22;3458;53.678;14.080;2022-11-20T10:22:47;3.30;99.90
6841;DHT22;3458;53.678;14.080;2022-11-20T10:25:17;3.20;99.90
6841;DHT22;3458;53.678;14.080;2022-11-20T10:28:27;3.20;99.90
6841;DHT22;3458;53.678;14.080;2022-11-20T10:31:00;3.30;99.90
6841;DHT22;3458;53.678;14.080;2022-11-20T10:33:31;3.30;99.90
6841;DHT22;3458;53.678;14.080;2022-11-20T10:36:18;3.30;99.90
6841;DHT22;3458;53.678;14.080;2022-11-20T10:39:01;3.30;99.90
6841;DHT22;3458;53.678;14.080;2022-11-20T10:41:33;3.30;99.90
6841;DHT22;3458;53.678;14.080;2022-11-20T10:44:05;3.20;99.90
6841;DHT22;3458;53.678;14.080;2022-11-20T10:46:43;3.20;99.90
6841;DHT22;3458;53.678;14.080;2022-11-20T10:49:16;3.20;99.90
6841;DHT22;3458;53.678;14.080;2022-11-20T10:51:56;3.10;99.90
6841;DHT22;3458;53.678;14.080;2022-11-20T10:58:01;3.00;99.90
6841;DHT22;3458;53.678;14.080;2022-11-20T11:00:35;2.90;99.90
6841;DHT22;3458;53.678;14.080;2022-11-20T11:03:00;2.80;99.90
6841;DHT22;3458;53.678;14.080;2022-11-20T11:05:47;2.80;99.90
6841;DHT22;3458;53.678;14.080;2022-11-20T11:08:17;2.70;99.90
6841;DHT22;3458;53.678;14.080;2022-11-20T11:10:53;2.70;99.90
6841;DHT22;3458;53.678;14.080;2022-11-20T11:13:24;2.80;99.90
6841;DHT22;3458;53.678;14.080;2022-11-20T11:15:50;2.80;99.90
6841;DHT22;3458;53.678;14.080;2022-11-20T11:18:25;2.80;99.90
6841;DHT22;3458;53.678;14.080;2022-11-20T11:20:52;2.90;99.90
6841;DHT22;3458;53.678;14.080;2022-11-20T11:23:34;2.90;99.90
6841;DHT22;3458;53.678;14.080;2022-11-20T11:26:01;2.90;99.90
6841;DHT22;3458;53.678;14.080;2022-11-20T11:28:28;2.90;99.90
6841;DHT22;3458;53.678;14.080;2022-11-20T11:30:54;2.90;99.90
6841;DHT22;3458;53.678;14.080;2022-11-20T11:33:25;2.90;99.90
6841;DHT22;3458;53.678;14.080;2022-11-20T11:35:56;2.90;99.90
6841;DHT22;3458;53.678;14.080;2022-11-20T11:38:41;2.80;99.90
6841;DHT22;3458;53.678;14.080;2022-11-20T11:41:17;2.80;99.90
6841;DHT22;3458;53.678;14.080;2022-11-20T11:44:17;2.80;99.90
6841;DHT22;3458;53.678;14.080;2022-11-20T11:47:03;2.90;99.90
6841;DHT22;3458;53.678;14.080;2022-11-20T11:49:29;2.90;99.90
6841;DHT22;3458;53.678;14.080;2022-11-20T11:52:14;2.90;99.90
6841;DHT22;3458;53.678;14.080;2022-11-20T11:54:56;2.80;99.90
6841;DHT22;3458;53.678;14.080;2022-11-20T11:57:34;2.90;99.90
6841;DHT22;3458;53.678;14.080;2022-11-20T12:00:13;2.90;99.90
6841;DHT22;3458;53.678;14.080;2022-11-20T12:05:20;2.90;99.90
6841;DHT22;3458;53.678;14.080;2022-11-20T12:10:39;2.90;99.90
6841;DHT22;3458;53.678;14.080;2022-11-20T12:13:26;2.90;99.90
6841;DHT22;3458;53.678;14.080;2022-11-20T12:15:54;2.90;99.90
6841;DHT22;3458;53.678;14.080;2022-11-20T12:18:21;2.90;99.90
6841;DHT22;3458;53.678;14.080;2022-11-20T12:21:17;2.90;99.90
6841;DHT22;3458;53.678;14.080;2022-11-20T12:29:51;2.90;99.90
6841;DHT22;3458;53.678;14.080;2022-11-20T12:35:38;2.80;99.90
6841;DHT22;3458;53.678;14.080;2022-11-20T12:40:58;2.80;99.90
6841;DHT22;3458;53.678;14.080;2022-11-20T12:43:31;2.90;99.90
6841;DHT22;3458;53.678;14.080;2022-11-20T12:46:34;2.90;99.90
6841;DHT22;3458;53.678;14.080;2022-11-20T12:52:16;2.80;99.90
6841;DHT22;3458;53.678;14.080;2022-11-20T13:00:27;2.80;99.90
6841;DHT22;3458;53.678;14.080;2022-11-20T13:08:29;3.20;99.90
6841;DHT22;3458;53.678;14.080;2022-11-20T13:11:25;3.20;99.90
6841;DHT22;3458;53.678;14.080;2022-11-20T13:16:44;3.30;99.90
6841;DHT22;3458;53.678;14.080;2022-11-20T13:19:13;3.30;99.90
6841;DHT22;3458;53.678;14.080;2022-11-20T13:21:42;3.30;99.90
6841;DHT22;3458;53.678;14.080;2022-11-20T13:24:22;3.40;99.90
6841;DHT22;3458;53.678;14.080;2022-11-20T13:29:43;3.50;99.90
6841;DHT22;3458;53.678;14.080;2022-11-20T13:32:18;3.60;99.90
6841;DHT22;3458;53.678;14.080;2022-11-20T13:35:01;3.70;99.90
6841;DHT22;3458;53.678;14.080;2022-11-20T13:37:31;3.80;99.90
6841;DHT22;3458;53.678;14.080;2022-11-20T13:42:44;3.70;99.90
6841;DHT22;3458;53.678;14.080;2022-11-20T13:45:24;3.60;99.90
6841;DHT22;3458;53.678;14.080;2022-11-20T13:47:52;3.40;99.90
6841;DHT22;3458;53.678;14.080;2022-11-20T13:50:18;3.30;99.90
6841;DHT22;3458;53.678;14.080;2022-11-20T13:53:02;3.10;99.90
6841;DHT22;3458;53.678;14.080;2022-11-20T13:55:40;3.00;99.90
6841;DHT22;3458;53.678;14.080;2022-11-20T14:01:17;2.90;99.90
6841;DHT22;3458;53.678;14.080;2022-11-20T14:03:45;2.70;99.90
6841;DHT22;3458;53.678;14.080;2022-11-20T14:06:16;2.70;99.90
6841;DHT22;3458;53.678;14.080;2022-11-20T14:08:48;2.60;99.90
6841;DHT22;3458;53.678;14.080;2022-11-20T14:11:22;2.60;99.90
6841;DHT22;3458;53.678;14.080;2022-11-20T14:14:15;2.50;99.90
6841;DHT22;3458;53.678;14.080;2022-11-20T14:16:41;2.50;99.90
6841;DHT22;3458;53.678;14.080;2022-11-20T14:21:52;2.50;99.90
6841;DHT22;3458;53.678;14.080;2022-11-20T14:24:23;2.50;99.90
6841;DHT22;3458;53.678;14.080;2022-11-20T14:26:49;2.40;99.90
6841;DHT22;3458;53.678;14.080;2022-11-20T14:29:19;2.40;99.90
6841;DHT22;3458;53.678;14.080;2022-11-20T14:31:46;2.40;99.90
6841;DHT22;3458;53.678;14.080;2022-11-20T14:34:19;2.40;99.90
6841;DHT22;3458;53.678;14.080;2022-11-20T14:36:45;2.30;99.90
6841;DHT22;3458;53.678;14.080;2022-11-20T14:39:12;2.30;99.90
6841;DHT22;3458;53.678;14.080;2022-11-20T14:41:53;2.40;99.90
6841;DHT22;3458;53.678;14.080;2022-11-20T14:44:32;2.30;99.90
6841;DHT22;3458;53.678;14.080;2022-11-20T14:47:00;2.30;99.90
6841;DHT22;3458;53.678;14.080;2022-11-20T14:49:29;2.30;99.90
6841;DHT22;3458;53.678;14.080;2022-11-20T14:52:00;2.30;99.90
6841;DHT22;3458;53.678;14.080;2022-11-20T14:54:26;2.20;99.90
6841;DHT22;3458;53.678;14.080;2022-11-20T14:56:58;2.20;99.90
6841;DHT22;3458;53.678;14.080;2022-11-20T14:59:33;2.20;99.90
6841;DHT22;3458;53.678;14.080;2022-11-20T15:02:10;2.10;99.90
6841;DHT22;3458;53.678;14.080;2022-11-20T15:04:58;2.10;99.90
6841;DHT22;3458;53.678;14.080;2022-11-20T15:07:33;2.10;99.90
6841;DHT22;3458;53.678;14.080;2022-11-20T15:12:31;2.20;99.90
6841;DHT22;3458;53.678;14.080;2022-11-20T15:14:56;2.30;99.90
6841;DHT22;3458;53.678;14.080;2022-11-20T15:17:22;2.20;99.90
6841;DHT22;3458;53.678;14.080;2022-11-20T15:19:48;2.20;99.90
6841;DHT22;3458;53.678;14.080;2022-11-20T15:22:14;2.10;99.90
6841;DHT22;3458;53.678;14.080;2022-11-20T15:24:41;2.10;99.90
6841;DHT22;3458;53.678;14.080;2022-11-20T15:27:08;2.10;99.90
6841;DHT22;3458;53.678;14.080;2022-11-20T15:29:34;2.10;99.90
6841;DHT22;3458;53.678;14.080;2022-11-20T15:32:00;2.10;99.90
6841;DHT22;3458;53.678;14.080;2022-11-20T15:34:26;2.10;99.90
6841;DHT22;3458;53.678;14.080;2022-11-20T15:36:52;2.00;99.90
6841;DHT22;3458;53.678;14.080;2022-11-20T15:39:18;2.00;99.90
6841;DHT22;3458;53.678;14.080;2022-11-20T15:41:44;2.00;99.90
6841;DHT22;3458;53.678;14.080;2022-11-20T15:44:09;2.00;99.90
6841;DHT22;3458;53.678;14.080;2022-11-20T15:46:40;2.00;99.90
6841;DHT22;3458;53.678;14.080;2022-11-20T15:49:13;2.00;99.90
6841;DHT22;3458;53.678;14.080;2022-11-20T15:51:41;2.00;99.90
6841;DHT22;3458;53.678;14.080;2022-11-20T15:54:15;2.00;99.90
6841;DHT22;3458;53.678;14.080;2022-11-20T15:56:43;2.00;99.90
6841;DHT22;3458;53.678;14.080;2022-11-20T15:59:08;2.00;99.90
6841;DHT22;3458;53.678;14.080;2022-11-20T16:01:34;2.00;99.90
6841;DHT22;3458;53.678;14.080;2022-11-20T16:04:00;1.90;99.90
6841;DHT22;3458;53.678;14.080;2022-11-20T16:06:26;1.80;99.90
6841;DHT22;3458;53.678;14.080;2022-11-20T16:08:51;1.90;99.90
6841;DHT22;3458;53.678;14.080;2022-11-20T16:11:17;1.90;99.90
6841;DHT22;3458;53.678;14.080;2022-11-20T16:13:44;1.90;99.90
6841;DHT22;3458;53.678;14.080;2022-11-20T16:16:32;2.00;99.90
6841;DHT22;3458;53.678;14.080;2022-11-20T16:18:58;1.90;99.90
6841;DHT22;3458;53.678;14.080;2022-11-20T16:21:23;1.90;99.90
6841;DHT22;3458;53.678;14.080;2022-11-20T16:24:00;2.00;99.90
6841;DHT22;3458;53.678;14.080;2022-11-20T16:26:25;2.00;99.90
6841;DHT22;3458;53.678;14.080;2022-11-20T16:28:51;2.00;99.90
6841;DHT22;3458;53.678;14.080;2022-11-20T16:31:18;2.00;99.90
6841;DHT22;3458;53.678;14.080;2022-11-20T16:33:52;2.00;99.90
6841;DHT22;3458;53.678;14.080;2022-11-20T16:36:18;2.00;99.90
6841;DHT22;3458;53.678;14.080;2022-11-20T16:38:43;2.00;99.90
6841;DHT22;3458;53.678;14.080;2022-11-20T16:41:09;1.90;99.90
6841;DHT22;3458;53.678;14.080;2022-11-20T16:43:49;1.90;99.90
6841;DHT22;3458;53.678;14.080;2022-11-20T16:46:18;1.90;99.90
6841;DHT22;3458;53.678;14.080;2022-11-20T16:48:43;1.90;99.90
6841;DHT22;3458;53.678;14.080;2022-11-20T16:51:11;1.90;99.90
6841;DHT22;3458;53.678;14.080;2022-11-20T16:53:37;1.90;99.90
6841;DHT22;3458;53.678;14.080;2022-11-20T16:56:29;1.90;99.90
6841;DHT22;3458;53.678;14.080;2022-11-20T16:58:56;1.90;99.90
6841;DHT22;3458;53.678;14.080;2022-11-20T17:01:23;1.90;99.90
6841;DHT22;3458;53.678;14.080;2022-11-20T17:03:57;1.80;99.90
6841;DHT22;3458;53.678;14.080;2022-11-20T17:06:26;1.80;99.90
6841;DHT22;3458;53.678;14.080;2022-11-20T17:08:52;1.70;99.90
6841;DHT22;3458;53.678;14.080;2022-11-20T17:11:18;1.70;99.90
6841;DHT22;3458;53.678;14.080;2022-11-20T17:13:44;1.70;99.90
6841;DHT22;3458;53.678;14.080;2022-11-20T17:16:12;1.70;99.90